Flight Track Log - Related Links

Times and Time Zones

All times are in EDT time to prevent confusion due to time zone crossing. See the SWA914 flight status page for this flight to view local times or setup timezone preferences in your user account.

Time Position Orientation Groundspeed Altitude Reporting Facility
EDT Latitude Longitude Course Direction KTS MPH feet Rate Location/Type
Sat 01:12:03 PM 32.7439 -117.2228 310° West 156 180 1,300  Level Los Angeles Center
Sat 01:13:05 PM 32.7764 -117.2817 303° West 208 239 3,100 2,419 Climbing Los Angeles Center
Sat 01:14:07 PM 32.8208 -117.3558 306° West 245 282 6,300 3,484 Climbing Los Angeles Center
Sat 01:15:09 PM 32.8744 -117.4250 313° West 275 316 10,300 3,048 Climbing Los Angeles Center
Sat 01:16:11 PM 32.9347 -117.5039 312° West 317 365 12,600 3,048 Climbing Los Angeles Center
Sat 01:17:00 PM 33.0689 -117.6630 310° West  Level FlightAware Approximate
Sat 01:17:13 PM 33.0119 -117.6069 312° West 344 396 16,600  Level Los Angeles Center
Sat 01:18:15 PM 33.0775 -117.6972 311° West 356 410 19,600 2,710 Climbing Los Angeles Center
Sat 01:19:17 PM 33.1478 -117.7897 312° West 370 426 22,200 2,419 Climbing Los Angeles Center
Sat 01:20:19 PM 33.2028 -117.9014 301° West 387 445 24,600 1,985 Climbing Los Angeles Center
Sat 01:21:33 PM 33.2442 -118.0267 292° West 402 463 26,700 1,971 Climbing Los Angeles Center
Sat 01:22:36 PM 33.3497 -118.1208 323° Northwest 421 484 29,100 2,352 Climbing Los Angeles Center
Sat 01:23:38 PM 33.4903 -118.1622 346° North 434 499 31,600 2,081 Climbing Los Angeles Center
Sat 01:24:40 PM 33.6061 -118.1958 346° North 431 496 33,400 1,597 Climbing Los Angeles Center
Sat 01:25:42 PM 33.7139 -118.2275 346° North 433 498 34,900 1,839 Climbing Los Angeles Center
Sat 01:26:44 PM 33.8553 -118.2694 346° North 430 495 37,200 1,500 Climbing Los Angeles Center
Sat 01:27:46 PM 33.9664 -118.3022 346° North 420 483 38,000 387 Climbing Los Angeles Center
Sat 01:28:48 PM 34.0781 -118.3361 346° North 416 479 38,000  Level Los Angeles Center
Sat 01:29:51 PM 34.1900 -118.3700 346° North 416 479 38,000  Level Los Angeles Center
Sat 01:30:53 PM 34.3019 -118.4039 346° North 416 479 38,000  Level Los Angeles Center
Sat 01:31:55 PM 34.4142 -118.4367 346° North 414 476 38,000  Level Los Angeles Center
Sat 01:32:57 PM 34.5481 -118.4769 346° North 414 476 38,000  Level Los Angeles Center
Sat 01:33:59 PM 34.6608 -118.5111 346° North 417 480 38,000  Level Los Angeles Center
Sat 01:35:01 PM 34.7747 -118.5456 346° North 422 486 38,000  Level Los Angeles Center
Sat 01:36:03 PM 34.8892 -118.5803 346° North 424 488 38,000  Level Los Angeles Center
Sat 01:37:05 PM 35.0128 -118.6169 346° North 425 489 38,000  Level Los Angeles Center
Sat 01:38:07 PM 35.1294 -118.6428 350° North 427 491 38,000  Level Los Angeles Center
Sat 01:39:09 PM 35.2450 -118.6667 350° North 423 487 38,000  Level Los Angeles Center
Sat 01:40:11 PM 35.3847 -118.6975 350° North 425 489 38,000  Level Los Angeles Center
Sat 01:41:13 PM 35.4947 -118.7211 350° North 411 473 38,000  Level Los Angeles Center
Sat 01:42:15 PM 35.6075 -118.7469 349° North 413 475 38,000  Level Los Angeles Center
Sat 01:43:06 PM 35.6972 -118.7658 350° North 413 475 38,000  Level Oakland Center
Sat 01:44:07 PM 35.8097 -118.7914 350° North 412 474 38,000  Level Oakland Center
Sat 01:45:08 PM 35.9225 -118.8158 350° North 412 474 38,000  Level Oakland Center
Sat 01:46:09 PM 36.0356 -118.8406 350° North 412 474 38,000  Level Oakland Center
Sat 01:47:11 PM 36.1689 -118.8717 349° North 411 473 38,000 -49 Level Oakland Center
Sat 01:48:12 PM 36.2817 -118.8967 350° North 416 479 37,900 -541 Descending Oakland Center
Sat 01:49:13 PM 36.3928 -118.9214 350° North 407 468 36,900 -927 Descending Oakland Center
Sat 01:50:15 PM 36.5050 -118.9458 350° North 409 471 36,000 -927 Descending Oakland Center
Sat 01:51:16 PM 36.6147 -118.9706 350° North 405 466 35,000 -984 Descending Oakland Center
Sat 01:52:17 PM 36.7281 -118.9975 349° North 413 475 34,000 -683 Descending Oakland Center
Sat 01:53:19 PM 36.8392 -119.0247 349° North 410 472 33,600 -732 Descending Oakland Center
Sat 01:54:20 PM 36.9456 -119.0469 351° North 391 450 32,500 -1,131 Descending Oakland Center
Sat 01:55:21 PM 37.0703 -119.0772 349° North 383 441 31,300 -1,073 Descending Oakland Center
Sat 01:56:23 PM 37.1722 -119.1011 349° North 374 430 30,300 -634 Descending Oakland Center
Sat 01:57:24 PM 37.2719 -119.1244 349° North 367 422 30,000 -148 Descending Oakland Center
Sat 01:58:25 PM 37.3703 -119.1478 349° North 370 426 30,000  Level Oakland Center
Sat 01:59:26 PM 37.4714 -119.1717 349° North 374 430 30,000 -98 Level Oakland Center
Sat 02:00:28 PM 37.5719 -119.1961 349° North 371 427 29,800 -634 Descending Oakland Center
Sat 02:01:29 PM 37.6739 -119.2131 353° North 352 405 28,700 -1,033 Descending Oakland Center
Sat 02:02:30 PM 37.7739 -119.2361 350° North 360 414 27,700 -976 Descending Oakland Center
Sat 02:03:32 PM 37.8703 -119.2594 349° North 356 410 26,700 -976 Descending Oakland Center
Sat 02:04:33 PM 37.9647 -119.2808 350° North 348 400 25,700 -984 Descending Oakland Center
Sat 02:05:34 PM 38.0586 -119.3031 349° North 345 397 24,700 -829 Descending Oakland Center
Sat 02:06:36 PM 38.1519 -119.3239 350° North 342 394 24,000 -683 Descending Oakland Center
Sat 02:07:37 PM 38.2631 -119.3500 350° North 341 392 23,300 -836 Descending Oakland Center
Sat 02:08:38 PM 38.3531 -119.3728 349° North 333 383 22,300 -976 Descending Oakland Center
Sat 02:09:40 PM 38.4419 -119.3925 350° North 326 375 21,300 -976 Descending Oakland Center
Sat 02:10:41 PM 38.5314 -119.4133 350° North 326 375 20,300 -984 Descending Oakland Center
Sat 02:11:42 PM 38.6189 -119.4344 349° North 323 372 19,300 -976 Descending Oakland Center
Sat 02:12:44 PM 38.7047 -119.4550 349° North 317 365 18,300 -634 Descending Oakland Center
Sat 02:13:45 PM 38.7900 -119.4764 349° North 312 359 18,000 -148 Descending Oakland Center
Sat 02:14:46 PM 38.8731 -119.4964 349° North 307 353 18,000 -49 Level Oakland Center
Sat 02:15:48 PM 38.9572 -119.5156 350° North 306 352 17,900 -683 Descending Oakland Center
Sat 02:16:49 PM 39.0406 -119.5356 349° North 303 349 16,600 -1,180 Descending Oakland Center
Sat 02:17:50 PM 39.1222 -119.5558 349° North 301 346 15,500 -1,463 Descending Oakland Center
Sat 02:18:52 PM 39.2169 -119.5783 350° North 293 337 13,600 -1,659 Descending Oakland Center
Sat 02:19:53 PM 39.2936 -119.5983 349° North 286 329 12,100 -1,475 Descending Oakland Center
Sat 02:20:54 PM 39.3678 -119.6164 349° North 280 322 10,600 -1,133 Descending Oakland Center
Sat 02:21:23 PM 39.4000 -119.6333 338° Northwest 266 306 10,400 -404 Descending Northern Cal TRACON
Sat 02:22:23 PM 39.4667 -119.6500 349° North 251 289 10,000 -450 Descending Northern Cal TRACON
Sat 02:23:23 PM 39.5333 -119.6667 349° North 222 255 9,500 -895 Descending Northern Cal TRACON
Sat 02:24:17 PM 39.5833 -119.6833 346° North 203 234 8,300 -1,125 Descending Northern Cal TRACON
Sat 02:24:59 PM 39.6256 -119.6903 353° North 227 261 7,700 -1,300 Descending Oakland Center
Sat 02:25:17 PM 39.6167 -119.7167 246° West 192 221 7,000 -1,077 Descending Northern Cal TRACON
Sat 02:26:17 PM 39.6000 -119.7667 247° West 158 182 6,300 -850 Descending Northern Cal TRACON
Sat 02:27:17 PM 39.5500 -119.7667 180° South 156 180 5,300 -1,000 Descending Northern Cal TRACON
Sat 02:29:00 PM 39.4991 -119.7681 237° Southwest  Level Estimated
Sat 02:36:00 PM 39.4991 -119.7681 237° Southwest  Level Estimated

Login

Don't have an account? Register now (free) for customized features, flight alerts, and more!